sensor_id;sensor_type;location;lat;lon;timestamp;P1;durP1;ratioP1;P2;durP2;ratioP2
6955;SDS011;50345;51.136;16.886;2023-08-21T00:01:19;15.00;;;13.67;;
6955;SDS011;50345;51.136;16.886;2023-08-21T00:03:45;15.70;;;14.13;;
6955;SDS011;50345;51.136;16.886;2023-08-21T00:06:10;15.47;;;14.13;;
6955;SDS011;50345;51.136;16.886;2023-08-21T00:08:36;15.27;;;14.17;;
6955;SDS011;50345;51.136;16.886;2023-08-21T00:11:02;15.33;;;14.23;;
6955;SDS011;50345;51.136;16.886;2023-08-21T00:13:28;14.80;;;13.70;;
6955;SDS011;50345;51.136;16.886;2023-08-21T00:15:53;16.30;;;14.80;;
6955;SDS011;50345;51.136;16.886;2023-08-21T00:18:20;15.87;;;14.63;;
6955;SDS011;50345;51.136;16.886;2023-08-21T00:20:46;15.90;;;14.63;;
6955;SDS011;50345;51.136;16.886;2023-08-21T00:23:11;15.67;;;14.27;;
6955;SDS011;50345;51.136;16.886;2023-08-21T00:25:37;15.40;;;14.03;;
6955;SDS011;50345;51.136;16.886;2023-08-21T00:28:03;15.23;;;14.03;;
6955;SDS011;50345;51.136;16.886;2023-08-21T00:30:29;15.83;;;14.43;;
6955;SDS011;50345;51.136;16.886;2023-08-21T00:32:54;14.67;;;13.50;;
6955;SDS011;50345;51.136;16.886;2023-08-21T00:35:20;14.13;;;13.00;;
6955;SDS011;50345;51.136;16.886;2023-08-21T00:37:46;14.43;;;13.03;;
6955;SDS011;50345;51.136;16.886;2023-08-21T00:40:11;15.07;;;13.87;;
6955;SDS011;50345;51.136;16.886;2023-08-21T00:42:37;15.23;;;14.13;;
6955;SDS011;50345;51.136;16.886;2023-08-21T00:45:03;15.23;;;13.87;;
6955;SDS011;50345;51.136;16.886;2023-08-21T00:47:29;16.07;;;14.70;;
6955;SDS011;50345;51.136;16.886;2023-08-21T00:49:55;15.73;;;14.53;;
6955;SDS011;50345;51.136;16.886;2023-08-21T00:52:21;15.53;;;14.03;;
6955;SDS011;50345;51.136;16.886;2023-08-21T00:54:46;16.40;;;15.10;;
6955;SDS011;50345;51.136;16.886;2023-08-21T00:57:12;15.40;;;14.03;;
6955;SDS011;50345;51.136;16.886;2023-08-21T00:59:39;16.90;;;15.40;;
6955;SDS011;50345;51.136;16.886;2023-08-21T01:02:05;15.40;;;14.10;;
6955;SDS011;50345;51.136;16.886;2023-08-21T01:04:31;14.77;;;13.67;;
6955;SDS011;50345;51.136;16.886;2023-08-21T01:06:56;13.57;;;12.27;;
6955;SDS011;50345;51.136;16.886;2023-08-21T01:15:11;14.90;;;13.70;;
6955;SDS011;50345;51.136;16.886;2023-08-21T01:17:38;15.00;;;13.67;;
6955;SDS011;50345;51.136;16.886;2023-08-21T01:20:06;15.53;;;14.40;;
6955;SDS011;50345;51.136;16.886;2023-08-21T01:22:38;15.53;;;14.23;;
6955;SDS011;50345;51.136;16.886;2023-08-21T01:25:05;14.37;;;13.20;;
6955;SDS011;50345;51.136;16.886;2023-08-21T01:27:31;15.73;;;14.53;;
6955;SDS011;50345;51.136;16.886;2023-08-21T01:29:58;15.93;;;14.57;;
6955;SDS011;50345;51.136;16.886;2023-08-21T01:32:37;17.20;;;15.70;;
6955;SDS011;50345;51.136;16.886;2023-08-21T01:35:10;15.13;;;13.93;;
6955;SDS011;50345;51.136;16.886;2023-08-21T01:37:37;14.33;;;13.23;;
6955;SDS011;50345;51.136;16.886;2023-08-21T01:40:03;14.80;;;13.53;;
6955;SDS011;50345;51.136;16.886;2023-08-21T01:42:29;16.07;;;14.67;;
6955;SDS011;50345;51.136;16.886;2023-08-21T01:44:55;15.43;;;14.30;;
6955;SDS011;50345;51.136;16.886;2023-08-21T01:47:20;15.30;;;14.20;;
6955;SDS011;50345;51.136;16.886;2023-08-21T01:49:46;17.10;;;15.40;;
6955;SDS011;50345;51.136;16.886;2023-08-21T01:52:11;17.60;;;16.00;;
6955;SDS011;50345;51.136;16.886;2023-08-21T01:54:37;16.83;;;15.53;;
6955;SDS011;50345;51.136;16.886;2023-08-21T01:57:03;16.93;;;15.63;;
6955;SDS011;50345;51.136;16.886;2023-08-21T01:59:28;17.43;;;16.03;;
6955;SDS011;50345;51.136;16.886;2023-08-21T02:01:54;17.50;;;14.30;;
6955;SDS011;50345;51.136;16.886;2023-08-21T02:04:19;18.10;;;16.70;;
6955;SDS011;50345;51.136;16.886;2023-08-21T02:06:45;18.20;;;16.80;;
6955;SDS011;50345;51.136;16.886;2023-08-21T02:09:11;19.53;;;17.83;;
6955;SDS011;50345;51.136;16.886;2023-08-21T02:11:36;20.53;;;18.83;;
6955;SDS011;50345;51.136;16.886;2023-08-21T02:14:02;20.67;;;18.87;;
6955;SDS011;50345;51.136;16.886;2023-08-21T02:16:27;21.70;;;19.60;;
6955;SDS011;50345;51.136;16.886;2023-08-21T02:18:53;19.97;;;18.37;;
6955;SDS011;50345;51.136;16.886;2023-08-21T02:21:19;20.10;;;18.40;;
6955;SDS011;50345;51.136;16.886;2023-08-21T02:23:45;21.30;;;19.30;;
6955;SDS011;50345;51.136;16.886;2023-08-21T02:26:11;20.13;;;18.53;;
6955;SDS011;50345;51.136;16.886;2023-08-21T02:28:36;20.73;;;18.83;;
6955;SDS011;50345;51.136;16.886;2023-08-21T02:31:02;21.20;;;19.17;;
6955;SDS011;50345;51.136;16.886;2023-08-21T02:33:28;22.00;;;19.70;;
6955;SDS011;50345;51.136;16.886;2023-08-21T02:35:53;20.13;;;18.53;;
6955;SDS011;50345;51.136;16.886;2023-08-21T02:38:19;21.63;;;19.93;;
6955;SDS011;50345;51.136;16.886;2023-08-21T02:40:44;22.47;;;20.50;;
6955;SDS011;50345;51.136;16.886;2023-08-21T02:43:10;17.97;;;16.33;;
6955;SDS011;50345;51.136;16.886;2023-08-21T02:45:36;24.30;;;19.47;;
6955;SDS011;50345;51.136;16.886;2023-08-21T02:48:02;17.47;;;15.50;;
6955;SDS011;50345;51.136;16.886;2023-08-21T02:50:28;29.87;;;15.20;;
6955;SDS011;50345;51.136;16.886;2023-08-21T02:52:53;26.47;;;12.33;;
6955;SDS011;50345;51.136;16.886;2023-08-21T02:55:19;42.20;;;14.80;;
6955;SDS011;50345;51.136;16.886;2023-08-21T02:57:45;17.50;;;14.00;;
6955;SDS011;50345;51.136;16.886;2023-08-21T03:00:11;13.80;;;12.40;;
6955;SDS011;50345;51.136;16.886;2023-08-21T03:02:37;12.43;;;11.33;;
6955;SDS011;50345;51.136;16.886;2023-08-21T03:05:03;13.20;;;11.17;;
6955;SDS011;50345;51.136;16.886;2023-08-21T03:07:29;12.00;;;10.80;;
6955;SDS011;50345;51.136;16.886;2023-08-21T03:09:55;13.03;;;10.90;;
6955;SDS011;50345;51.136;16.886;2023-08-21T03:12:20;14.53;;;13.30;;
6955;SDS011;50345;51.136;16.886;2023-08-21T03:14:46;17.10;;;15.60;;
6955;SDS011;50345;51.136;16.886;2023-08-21T03:17:11;19.83;;;17.97;;
6955;SDS011;50345;51.136;16.886;2023-08-21T03:19:37;20.00;;;18.10;;
6955;SDS011;50345;51.136;16.886;2023-08-21T03:22:03;22.70;;;20.60;;
6955;SDS011;50345;51.136;16.886;2023-08-21T03:24:28;21.87;;;19.50;;
6955;SDS011;50345;51.136;16.886;2023-08-21T03:26:54;22.07;;;19.77;;
6955;SDS011;50345;51.136;16.886;2023-08-21T03:29:19;20.73;;;18.93;;
6955;SDS011;50345;51.136;16.886;2023-08-21T03:31:47;23.90;;;21.57;;
6955;SDS011;50345;51.136;16.886;2023-08-21T03:34:14;20.80;;;19.13;;
6955;SDS011;50345;51.136;16.886;2023-08-21T03:36:39;21.53;;;19.73;;
6955;SDS011;50345;51.136;16.886;2023-08-21T03:39:05;22.50;;;20.33;;
6955;SDS011;50345;51.136;16.886;2023-08-21T03:41:31;23.07;;;21.20;;
6955;SDS011;50345;51.136;16.886;2023-08-21T03:43:57;21.50;;;19.73;;
6955;SDS011;50345;51.136;16.886;2023-08-21T03:46:22;21.33;;;19.13;;
6955;SDS011;50345;51.136;16.886;2023-08-21T03:48:49;21.70;;;19.90;;
6955;SDS011;50345;51.136;16.886;2023-08-21T03:51:15;19.90;;;18.27;;
6955;SDS011;50345;51.136;16.886;2023-08-21T03:53:41;20.90;;;19.10;;
6955;SDS011;50345;51.136;16.886;2023-08-21T03:56:06;20.97;;;19.07;;
6955;SDS011;50345;51.136;16.886;2023-08-21T03:58:32;20.03;;;18.43;;
6955;SDS011;50345;51.136;16.886;2023-08-21T04:00:58;20.60;;;18.90;;
6955;SDS011;50345;51.136;16.886;2023-08-21T04:03:24;22.40;;;20.20;;
6955;SDS011;50345;51.136;16.886;2023-08-21T04:05:50;20.37;;;18.63;;
6955;SDS011;50345;51.136;16.886;2023-08-21T04:08:18;23.47;;;21.37;;
6955;SDS011;50345;51.136;16.886;2023-08-21T04:10:43;21.70;;;19.70;;
6955;SDS011;50345;51.136;16.886;2023-08-21T04:13:09;20.57;;;18.87;;
6955;SDS011;50345;51.136;16.886;2023-08-21T04:15:34;22.03;;;20.13;;
6955;SDS011;50345;51.136;16.886;2023-08-21T04:18:00;18.63;;;16.97;;
6955;SDS011;50345;51.136;16.886;2023-08-21T04:20:26;20.77;;;18.87;;
6955;SDS011;50345;51.136;16.886;2023-08-21T04:22:51;17.33;;;15.83;;
6955;SDS011;50345;51.136;16.886;2023-08-21T04:25:17;17.80;;;16.20;;
6955;SDS011;50345;51.136;16.886;2023-08-21T04:27:43;18.20;;;16.60;;
6955;SDS011;50345;51.136;16.886;2023-08-21T04:30:09;16.80;;;15.30;;
6955;SDS011;50345;51.136;16.886;2023-08-21T04:32:35;16.90;;;15.40;;
6955;SDS011;50345;51.136;16.886;2023-08-21T04:35:00;16.83;;;15.27;;
6955;SDS011;50345;51.136;16.886;2023-08-21T04:37:26;15.60;;;14.00;;
6955;SDS011;50345;51.136;16.886;2023-08-21T04:39:52;14.60;;;13.20;;
6955;SDS011;50345;51.136;16.886;2023-08-21T04:42:18;16.37;;;14.97;;
6955;SDS011;50345;51.136;16.886;2023-08-21T04:44:44;14.23;;;12.67;;
6955;SDS011;50345;51.136;16.886;2023-08-21T04:47:26;16.57;;;12.63;;
6955;SDS011;50345;51.136;16.886;2023-08-21T04:49:52;13.57;;;12.33;;
6955;SDS011;50345;51.136;16.886;2023-08-21T04:52:19;14.77;;;12.90;;
6955;SDS011;50345;51.136;16.886;2023-08-21T04:54:45;14.50;;;12.90;;
6955;SDS011;50345;51.136;16.886;2023-08-21T04:57:12;14.20;;;12.90;;
6955;SDS011;50345;51.136;16.886;2023-08-21T04:59:38;13.43;;;12.03;;
6955;SDS011;50345;51.136;16.886;2023-08-21T05:02:04;12.43;;;11.23;;
6955;SDS011;50345;51.136;16.886;2023-08-21T05:04:29;12.40;;;11.40;;
6955;SDS011;50345;51.136;16.886;2023-08-21T05:06:55;12.33;;;11.23;;
6955;SDS011;50345;51.136;16.886;2023-08-21T05:09:20;14.60;;;10.13;;
6955;SDS011;50345;51.136;16.886;2023-08-21T05:11:46;11.70;;;10.60;;
6955;SDS011;50345;51.136;16.886;2023-08-21T05:14:11;10.50;;;9.53;;
6955;SDS011;50345;51.136;16.886;2023-08-21T05:16:37;10.33;;;9.33;;
6955;SDS011;50345;51.136;16.886;2023-08-21T05:19:03;10.20;;;9.33;;
6955;SDS011;50345;51.136;16.886;2023-08-21T05:21:28;9.57;;;8.67;;
6955;SDS011;50345;51.136;16.886;2023-08-21T05:23:54;10.90;;;9.90;;
6955;SDS011;50345;51.136;16.886;2023-08-21T05:26:19;10.13;;;9.23;;
6955;SDS011;50345;51.136;16.886;2023-08-21T05:28:45;9.00;;;8.10;;
6955;SDS011;50345;51.136;16.886;2023-08-21T05:31:11;9.67;;;8.77;;
6955;SDS011;50345;51.136;16.886;2023-08-21T05:33:36;9.47;;;8.60;;
6955;SDS011;50345;51.136;16.886;2023-08-21T05:36:02;9.80;;;8.80;;
6955;SDS011;50345;51.136;16.886;2023-08-21T05:38:28;9.20;;;8.50;;
6955;SDS011;50345;51.136;16.886;2023-08-21T05:40:54;9.00;;;8.27;;
6955;SDS011;50345;51.136;16.886;2023-08-21T05:43:19;8.20;;;7.50;;
6955;SDS011;50345;51.136;16.886;2023-08-21T05:45:45;9.37;;;8.50;;
6955;SDS011;50345;51.136;16.886;2023-08-21T05:48:10;8.87;;;8.17;;
6955;SDS011;50345;51.136;16.886;2023-08-21T05:50:36;8.80;;;8.10;;
6955;SDS011;50345;51.136;16.886;2023-08-21T05:53:05;9.87;;;9.00;;
6955;SDS011;50345;51.136;16.886;2023-08-21T05:55:32;8.80;;;7.90;;
6955;SDS011;50345;51.136;16.886;2023-08-21T05:57:58;9.90;;;8.93;;
6955;SDS011;50345;51.136;16.886;2023-08-21T06:00:23;9.40;;;8.60;;
6955;SDS011;50345;51.136;16.886;2023-08-21T06:02:49;9.43;;;8.73;;
6955;SDS011;50345;51.136;16.886;2023-08-21T06:05:15;9.73;;;8.83;;
6955;SDS011;50345;51.136;16.886;2023-08-21T06:07:40;9.90;;;8.97;;
6955;SDS011;50345;51.136;16.886;2023-08-21T06:10:07;9.83;;;9.00;;
6955;SDS011;50345;51.136;16.886;2023-08-21T06:12:33;9.30;;;8.40;;
6955;SDS011;50345;51.136;16.886;2023-08-21T06:14:59;9.47;;;8.77;;
6955;SDS011;50345;51.136;16.886;2023-08-21T06:17:26;8.27;;;7.67;;
6955;SDS011;50345;51.136;16.886;2023-08-21T06:19:53;9.27;;;8.17;;
6955;SDS011;50345;51.136;16.886;2023-08-21T06:22:18;9.80;;;8.90;;
6955;SDS011;50345;51.136;16.886;2023-08-21T06:24:44;11.40;;;10.50;;
6955;SDS011;50345;51.136;16.886;2023-08-21T06:27:09;8.90;;;8.10;;
6955;SDS011;50345;51.136;16.886;2023-08-21T06:29:35;9.57;;;8.60;;
6955;SDS011;50345;51.136;16.886;2023-08-21T06:32:02;10.63;;;9.60;;
6955;SDS011;50345;51.136;16.886;2023-08-21T06:34:28;15.20;;;13.90;;
6955;SDS011;50345;51.136;16.886;2023-08-21T06:36:54;20.13;;;18.33;;
6955;SDS011;50345;51.136;16.886;2023-08-21T06:39:19;26.47;;;24.30;;
6955;SDS011;50345;51.136;16.886;2023-08-21T06:41:45;27.97;;;25.10;;
6955;SDS011;50345;51.136;16.886;2023-08-21T06:44:11;28.37;;;25.70;;
6955;SDS011;50345;51.136;16.886;2023-08-21T06:46:36;32.90;;;29.77;;
6955;SDS011;50345;51.136;16.886;2023-08-21T06:49:02;27.40;;;24.97;;
6955;SDS011;50345;51.136;16.886;2023-08-21T06:51:28;37.97;;;34.37;;
6955;SDS011;50345;51.136;16.886;2023-08-21T06:53:54;37.80;;;33.70;;
6955;SDS011;50345;51.136;16.886;2023-08-21T06:56:20;40.43;;;36.27;;
6955;SDS011;50345;51.136;16.886;2023-08-21T06:58:47;40.97;;;36.00;;
6955;SDS011;50345;51.136;16.886;2023-08-21T07:01:13;38.53;;;35.07;;
6955;SDS011;50345;51.136;16.886;2023-08-21T07:03:39;34.70;;;31.10;;
6955;SDS011;50345;51.136;16.886;2023-08-21T07:06:05;32.70;;;29.77;;
6955;SDS011;50345;51.136;16.886;2023-08-21T07:08:31;26.90;;;24.47;;
6955;SDS011;50345;51.136;16.886;2023-08-21T07:10:58;21.83;;;19.67;;
6955;SDS011;50345;51.136;16.886;2023-08-21T07:13:28;27.50;;;24.90;;
6955;SDS011;50345;51.136;16.886;2023-08-21T07:15:54;12.90;;;11.57;;
6955;SDS011;50345;51.136;16.886;2023-08-21T07:18:20;15.23;;;13.77;;
6955;SDS011;50345;51.136;16.886;2023-08-21T07:20:46;13.30;;;12.20;;
6955;SDS011;50345;51.136;16.886;2023-08-21T07:23:12;13.83;;;12.30;;
6955;SDS011;50345;51.136;16.886;2023-08-21T07:25:38;16.30;;;13.40;;
6955;SDS011;50345;51.136;16.886;2023-08-21T07:28:04;14.23;;;12.90;;
6955;SDS011;50345;51.136;16.886;2023-08-21T07:30:30;10.03;;;9.13;;
6955;SDS011;50345;51.136;16.886;2023-08-21T07:32:56;11.60;;;10.50;;
6955;SDS011;50345;51.136;16.886;2023-08-21T07:35:22;9.63;;;8.83;;
6955;SDS011;50345;51.136;16.886;2023-08-21T07:37:48;8.20;;;7.40;;
6955;SDS011;50345;51.136;16.886;2023-08-21T07:40:14;7.30;;;6.63;;
6955;SDS011;50345;51.136;16.886;2023-08-21T07:42:41;5.87;;;5.27;;
6955;SDS011;50345;51.136;16.886;2023-08-21T07:45:07;8.33;;;6.20;;
6955;SDS011;50345;51.136;16.886;2023-08-21T07:47:33;10.13;;;6.60;;
6955;SDS011;50345;51.136;16.886;2023-08-21T07:49:59;10.03;;;5.10;;
6955;SDS011;50345;51.136;16.886;2023-08-21T07:52:25;4.83;;;4.43;;
6955;SDS011;50345;51.136;16.886;2023-08-21T07:54:51;5.87;;;4.50;;
6955;SDS011;50345;51.136;16.886;2023-08-21T07:57:18;5.87;;;5.20;;
6955;SDS011;50345;51.136;16.886;2023-08-21T07:59:44;5.63;;;5.07;;
6955;SDS011;50345;51.136;16.886;2023-08-21T08:02:10;5.50;;;4.97;;
6955;SDS011;50345;51.136;16.886;2023-08-21T08:04:37;5.00;;;4.60;;
6955;SDS011;50345;51.136;16.886;2023-08-21T08:07:03;4.80;;;4.40;;
6955;SDS011;50345;51.136;16.886;2023-08-21T08:09:29;4.60;;;4.20;;
6955;SDS011;50345;51.136;16.886;2023-08-21T08:11:55;5.63;;;5.13;;
6955;SDS011;50345;51.136;16.886;2023-08-21T08:14:21;5.83;;;4.80;;
6955;SDS011;50345;51.136;16.886;2023-08-21T08:16:47;5.23;;;4.73;;
6955;SDS011;50345;51.136;16.886;2023-08-21T08:19:13;5.23;;;4.53;;
6955;SDS011;50345;51.136;16.886;2023-08-21T08:21:39;4.73;;;4.30;;
6955;SDS011;50345;51.136;16.886;2023-08-21T08:24:05;5.43;;;4.30;;
6955;SDS011;50345;51.136;16.886;2023-08-21T08:26:32;4.40;;;4.10;;
6955;SDS011;50345;51.136;16.886;2023-08-21T08:28:58;4.50;;;4.13;;
6955;SDS011;50345;51.136;16.886;2023-08-21T08:31:24;4.10;;;3.80;;
6955;SDS011;50345;51.136;16.886;2023-08-21T08:33:52;4.40;;;3.63;;
6955;SDS011;50345;51.136;16.886;2023-08-21T08:36:18;4.90;;;4.53;;
6955;SDS011;50345;51.136;16.886;2023-08-21T08:38:44;3.63;;;3.43;;
6955;SDS011;50345;51.136;16.886;2023-08-21T08:41:11;4.23;;;3.80;;
6955;SDS011;50345;51.136;16.886;2023-08-21T08:43:40;4.53;;;3.50;;
6955;SDS011;50345;51.136;16.886;2023-08-21T08:46:09;5.33;;;4.83;;
6955;SDS011;50345;51.136;16.886;2023-08-21T08:48:36;8.50;;;4.63;;
6955;SDS011;50345;51.136;16.886;2023-08-21T08:51:02;6.07;;;5.47;;
6955;SDS011;50345;51.136;16.886;2023-08-21T08:53:29;6.90;;;6.03;;
6955;SDS011;50345;51.136;16.886;2023-08-21T08:55:56;5.30;;;4.90;;
6955;SDS011;50345;51.136;16.886;2023-08-21T08:58:22;5.27;;;4.00;;
6955;SDS011;50345;51.136;16.886;2023-08-21T09:00:49;6.60;;;4.97;;
6955;SDS011;50345;51.136;16.886;2023-08-21T09:03:16;7.93;;;4.43;;
6955;SDS011;50345;51.136;16.886;2023-08-21T09:05:42;7.93;;;4.50;;
6955;SDS011;50345;51.136;16.886;2023-08-21T09:10:35;4.70;;;4.30;;
6955;SDS011;50345;51.136;16.886;2023-08-21T09:13:08;6.60;;;5.40;;
6955;SDS011;50345;51.136;16.886;2023-08-21T09:15:35;5.20;;;4.70;;
6955;SDS011;50345;51.136;16.886;2023-08-21T09:18:01;5.60;;;5.07;;
6955;SDS011;50345;51.136;16.886;2023-08-21T09:20:27;5.67;;;4.83;;
6955;SDS011;50345;51.136;16.886;2023-08-21T09:22:59;4.57;;;4.13;;
6955;SDS011;50345;51.136;16.886;2023-08-21T09:25:25;4.73;;;4.20;;
6955;SDS011;50345;51.136;16.886;2023-08-21T09:27:52;4.17;;;3.87;;
6955;SDS011;50345;51.136;16.886;2023-08-21T09:30:18;5.40;;;5.00;;
6955;SDS011;50345;51.136;16.886;2023-08-21T09:32:54;5.17;;;4.53;;
6955;SDS011;50345;51.136;16.886;2023-08-21T09:35:21;5.00;;;4.50;;
6955;SDS011;50345;51.136;16.886;2023-08-21T09:37:47;5.20;;;4.70;;
6955;SDS011;50345;51.136;16.886;2023-08-21T09:40:14;4.13;;;3.83;;
6955;SDS011;50345;51.136;16.886;2023-08-21T09:42:41;5.00;;;4.50;;
6955;SDS011;50345;51.136;16.886;2023-08-21T09:45:07;6.27;;;4.90;;
6955;SDS011;50345;51.136;16.886;2023-08-21T09:47:33;5.53;;;4.07;;
6955;SDS011;50345;51.136;16.886;2023-08-21T09:49:59;4.60;;;4.00;;
6955;SDS011;50345;51.136;16.886;2023-08-21T09:52:26;4.63;;;4.23;;
6955;SDS011;50345;51.136;16.886;2023-08-21T09:54:53;4.57;;;4.17;;
6955;SDS011;50345;51.136;16.886;2023-08-21T09:57:19;8.20;;;4.70;;
6955;SDS011;50345;51.136;16.886;2023-08-21T09:59:47;8.17;;;4.33;;
6955;SDS011;50345;51.136;16.886;2023-08-21T10:02:14;5.77;;;4.27;;
6955;SDS011;50345;51.136;16.886;2023-08-21T10:04:41;5.53;;;4.00;;
6955;SDS011;50345;51.136;16.886;2023-08-21T10:07:08;4.60;;;4.20;;
6955;SDS011;50345;51.136;16.886;2023-08-21T10:09:35;5.47;;;4.10;;
6955;SDS011;50345;51.136;16.886;2023-08-21T10:12:02;3.63;;;3.33;;
6955;SDS011;50345;51.136;16.886;2023-08-21T10:14:28;4.80;;;3.67;;
6955;SDS011;50345;51.136;16.886;2023-08-21T10:16:54;4.13;;;3.63;;
6955;SDS011;50345;51.136;16.886;2023-08-21T10:19:20;7.93;;;4.70;;
6955;SDS011;50345;51.136;16.886;2023-08-21T10:21:47;4.43;;;4.03;;
6955;SDS011;50345;51.136;16.886;2023-08-21T10:24:25;4.43;;;4.03;;
6955;SDS011;50345;51.136;16.886;2023-08-21T10:26:52;5.80;;;3.47;;
6955;SDS011;50345;51.136;16.886;2023-08-21T10:29:18;7.40;;;4.00;;
6955;SDS011;50345;51.136;16.886;2023-08-21T10:31:45;3.53;;;3.23;;
6955;SDS011;50345;51.136;16.886;2023-08-21T10:34:13;4.20;;;3.90;;
6955;SDS011;50345;51.136;16.886;2023-08-21T10:39:15;4.87;;;4.27;;
6955;SDS011;50345;51.136;16.886;2023-08-21T10:41:52;5.60;;;3.93;;
6955;SDS011;50345;51.136;16.886;2023-08-21T10:44:33;4.20;;;3.90;;
6955;SDS011;50345;51.136;16.886;2023-08-21T10:49:47;5.63;;;3.90;;
6955;SDS011;50345;51.136;16.886;2023-08-21T10:52:14;4.43;;;4.00;;
6955;SDS011;50345;51.136;16.886;2023-08-21T10:54:44;5.37;;;3.70;;
6955;SDS011;50345;51.136;16.886;2023-08-21T10:57:10;5.10;;;4.23;;
6955;SDS011;50345;51.136;16.886;2023-08-21T10:59:36;4.57;;;3.93;;
6955;SDS011;50345;51.136;16.886;2023-08-21T11:02:02;4.00;;;3.60;;
6955;SDS011;50345;51.136;16.886;2023-08-21T11:04:28;3.60;;;3.30;;
6955;SDS011;50345;51.136;16.886;2023-08-21T11:06:54;3.87;;;3.57;;
6955;SDS011;50345;51.136;16.886;2023-08-21T11:09:22;4.20;;;3.80;;
6955;SDS011;50345;51.136;16.886;2023-08-21T11:11:48;3.90;;;3.53;;
6955;SDS011;50345;51.136;16.886;2023-08-21T11:14:14;3.57;;;3.17;;
6955;SDS011;50345;51.136;16.886;2023-08-21T11:16:39;5.43;;;3.60;;
6955;SDS011;50345;51.136;16.886;2023-08-21T11:19:06;3.53;;;3.23;;
6955;SDS011;50345;51.136;16.886;2023-08-21T11:21:32;5.90;;;3.60;;
6955;SDS011;50345;51.136;16.886;2023-08-21T11:23:58;3.13;;;2.83;;
6955;SDS011;50345;51.136;16.886;2023-08-21T11:26:24;4.27;;;3.10;;
6955;SDS011;50345;51.136;16.886;2023-08-21T11:28:50;4.70;;;3.53;;
6955;SDS011;50345;51.136;16.886;2023-08-21T11:31:16;3.03;;;2.80;;
6955;SDS011;50345;51.136;16.886;2023-08-21T11:33:48;4.73;;;3.50;;
6955;SDS011;50345;51.136;16.886;2023-08-21T11:36:14;3.10;;;2.80;;
6955;SDS011;50345;51.136;16.886;2023-08-21T11:38:41;5.63;;;3.47;;
6955;SDS011;50345;51.136;16.886;2023-08-21T11:41:06;4.53;;;3.60;;
6955;SDS011;50345;51.136;16.886;2023-08-21T11:43:39;3.40;;;3.07;;
6955;SDS011;50345;51.136;16.886;2023-08-21T11:46:06;6.57;;;5.83;;
6955;SDS011;50345;51.136;16.886;2023-08-21T11:48:32;5.43;;;3.27;;
6955;SDS011;50345;51.136;16.886;2023-08-21T11:50:58;4.90;;;4.50;;
6955;SDS011;50345;51.136;16.886;2023-08-21T11:55:58;3.00;;;2.80;;
6955;SDS011;50345;51.136;16.886;2023-08-21T11:58:26;3.40;;;3.20;;
6955;SDS011;50345;51.136;16.886;2023-08-21T12:00:52;3.40;;;3.10;;
6955;SDS011;50345;51.136;16.886;2023-08-21T12:03:18;5.27;;;3.60;;
6955;SDS011;50345;51.136;16.886;2023-08-21T12:05:44;4.50;;;3.53;;
6955;SDS011;50345;51.136;16.886;2023-08-21T12:08:10;3.70;;;3.43;;
6955;SDS011;50345;51.136;16.886;2023-08-21T12:10:36;5.90;;;3.50;;
6955;SDS011;50345;51.136;16.886;2023-08-21T12:13:02;3.70;;;3.40;;
6955;SDS011;50345;51.136;16.886;2023-08-21T12:15:28;6.13;;;5.73;;
6955;SDS011;50345;51.136;16.886;2023-08-21T12:17:54;3.17;;;2.90;;
6955;SDS011;50345;51.136;16.886;2023-08-21T12:20:20;3.07;;;2.87;;
6955;SDS011;50345;51.136;16.886;2023-08-21T12:22:46;3.73;;;3.30;;
6955;SDS011;50345;51.136;16.886;2023-08-21T12:25:13;5.87;;;4.13;;
6955;SDS011;50345;51.136;16.886;2023-08-21T12:27:39;19.97;;;7.40;;
6955;SDS011;50345;51.136;16.886;2023-08-21T12:30:05;4.93;;;3.37;;
6955;SDS011;50345;51.136;16.886;2023-08-21T12:32:31;3.80;;;3.53;;
6955;SDS011;50345;51.136;16.886;2023-08-21T12:34:57;3.77;;;3.00;;
6955;SDS011;50345;51.136;16.886;2023-08-21T12:37:23;3.53;;;3.20;;
6955;SDS011;50345;51.136;16.886;2023-08-21T12:39:50;4.87;;;3.50;;
6955;SDS011;50345;51.136;16.886;2023-08-21T12:42:16;6.63;;;4.50;;
6955;SDS011;50345;51.136;16.886;2023-08-21T12:44:42;7.00;;;4.10;;
6955;SDS011;50345;51.136;16.886;2023-08-21T12:47:08;3.73;;;3.53;;
6955;SDS011;50345;51.136;16.886;2023-08-21T12:49:34;3.50;;;3.20;;
6955;SDS011;50345;51.136;16.886;2023-08-21T12:52:00;5.13;;;4.17;;
6955;SDS011;50345;51.136;16.886;2023-08-21T12:54:27;5.77;;;4.47;;
6955;SDS011;50345;51.136;16.886;2023-08-21T12:56:53;8.87;;;5.40;;
6955;SDS011;50345;51.136;16.886;2023-08-21T12:59:19;5.97;;;3.93;;
6955;SDS011;50345;51.136;16.886;2023-08-21T13:01:45;4.00;;;3.70;;
6955;SDS011;50345;51.136;16.886;2023-08-21T13:04:10;4.90;;;4.00;;
6955;SDS011;50345;51.136;16.886;2023-08-21T13:06:36;4.80;;;4.40;;
6955;SDS011;50345;51.136;16.886;2023-08-21T13:09:02;6.40;;;4.07;;
6955;SDS011;50345;51.136;16.886;2023-08-21T13:11:30;3.97;;;3.77;;
6955;SDS011;50345;51.136;16.886;2023-08-21T13:13:56;6.27;;;4.63;;
6955;SDS011;50345;51.136;16.886;2023-08-21T13:16:22;5.10;;;4.80;;
6955;SDS011;50345;51.136;16.886;2023-08-21T13:18:48;4.43;;;4.13;;
6955;SDS011;50345;51.136;16.886;2023-08-21T13:21:14;4.83;;;4.43;;
6955;SDS011;50345;51.136;16.886;2023-08-21T13:23:39;4.93;;;4.37;;
6955;SDS011;50345;51.136;16.886;2023-08-21T13:26:05;4.73;;;4.43;;
6955;SDS011;50345;51.136;16.886;2023-08-21T13:28:30;4.53;;;4.23;;
6955;SDS011;50345;51.136;16.886;2023-08-21T13:30:56;8.07;;;7.47;;
6955;SDS011;50345;51.136;16.886;2023-08-21T13:33:22;6.80;;;6.20;;
6955;SDS011;50345;51.136;16.886;2023-08-21T13:35:47;4.03;;;3.73;;
6955;SDS011;50345;51.136;16.886;2023-08-21T13:38:13;5.87;;;5.27;;
6955;SDS011;50345;51.136;16.886;2023-08-21T13:40:39;7.27;;;5.63;;
6955;SDS011;50345;51.136;16.886;2023-08-21T13:43:07;8.03;;;5.57;;
6955;SDS011;50345;51.136;16.886;2023-08-21T13:45:37;5.00;;;4.70;;
6955;SDS011;50345;51.136;16.886;2023-08-21T13:48:04;5.27;;;4.77;;
6955;SDS011;50345;51.136;16.886;2023-08-21T13:50:30;5.33;;;5.03;;
6955;SDS011;50345;51.136;16.886;2023-08-21T13:52:56;5.30;;;4.90;;
6955;SDS011;50345;51.136;16.886;2023-08-21T13:55:22;5.47;;;4.97;;
6955;SDS011;50345;51.136;16.886;2023-08-21T13:57:48;4.93;;;4.63;;
6955;SDS011;50345;51.136;16.886;2023-08-21T14:00:14;4.53;;;4.30;;
6955;SDS011;50345;51.136;16.886;2023-08-21T14:02:42;6.17;;;5.30;;
6955;SDS011;50345;51.136;16.886;2023-08-21T14:05:08;6.67;;;5.40;;
6955;SDS011;50345;51.136;16.886;2023-08-21T14:07:35;5.30;;;4.90;;
6955;SDS011;50345;51.136;16.886;2023-08-21T14:10:01;4.70;;;4.37;;
6955;SDS011;50345;51.136;16.886;2023-08-21T14:12:28;3.97;;;3.70;;
6955;SDS011;50345;51.136;16.886;2023-08-21T14:14:55;4.37;;;4.07;;
6955;SDS011;50345;51.136;16.886;2023-08-21T14:17:20;5.70;;;5.07;;
6955;SDS011;50345;51.136;16.886;2023-08-21T14:19:46;7.53;;;7.10;;
6955;SDS011;50345;51.136;16.886;2023-08-21T14:22:12;5.20;;;4.80;;
6955;SDS011;50345;51.136;16.886;2023-08-21T14:24:38;3.90;;;3.40;;
6955;SDS011;50345;51.136;16.886;2023-08-21T14:27:03;4.00;;;3.80;;
6955;SDS011;50345;51.136;16.886;2023-08-21T14:29:29;4.50;;;4.10;;
6955;SDS011;50345;51.136;16.886;2023-08-21T14:31:55;4.50;;;4.10;;
6955;SDS011;50345;51.136;16.886;2023-08-21T14:34:22;4.30;;;3.90;;
6955;SDS011;50345;51.136;16.886;2023-08-21T14:36:48;3.97;;;3.77;;
6955;SDS011;50345;51.136;16.886;2023-08-21T14:39:14;4.30;;;3.90;;
6955;SDS011;50345;51.136;16.886;2023-08-21T14:41:43;5.03;;;4.63;;
6955;SDS011;50345;51.136;16.886;2023-08-21T14:44:09;4.03;;;3.73;;
6955;SDS011;50345;51.136;16.886;2023-08-21T14:46:36;4.17;;;3.83;;